Time;durP1;ratioP1;P1;durP2;ratioP2;P2;SDS_P1;SDS_P2;PMS_P1;PMS_P2;Temp;Humidity;BMP_temperature;BMP_pressure;BME280_temperature;BME280_humidity;BME280_pressure;Samples;Min_cycle;Max_cycle;Signal;HPM_P1;HPM_P2
2022/10/23 00:00:58;;;;;;;4.17;3.40;;;11.70;99.90;;;;;;5008526;28;20957;-51
2022/10/23 00:03:25;;;;;;;8.57;3.80;;;11.70;99.90;;;;;;5010761;28;20460;-53
2022/10/23 00:05:51;;;;;;;7.87;4.30;;;11.70;99.90;;;;;;5009525;28;20519;-52
2022/10/23 00:08:19;;;;;;;6.40;3.63;;;11.60;99.90;;;;;;5010218;28;20474;-52
2022/10/23 00:10:45;;;;;;;3.90;3.37;;;11.60;99.90;;;;;;5010629;28;20518;-52
2022/10/23 00:13:12;;;;;;;3.90;3.50;;;11.50;99.90;;;;;;5012377;28;20502;-52
2022/10/23 00:15:39;;;;;;;4.57;3.40;;;11.40;99.90;;;;;;5008390;28;20476;-52
2022/10/23 00:18:05;;;;;;;3.47;3.17;;;11.40;99.90;;;;;;5010417;28;20464;-53
2022/10/23 00:20:32;;;;;;;4.40;3.50;;;11.40;99.90;;;;;;5012104;28;21015;-53
2022/10/23 00:22:58;;;;;;;5.33;3.20;;;11.40;99.90;;;;;;5007817;28;20464;-53
2022/10/23 00:25:27;;;;;;;4.10;3.70;;;11.40;99.90;;;;;;5007249;28;20491;-53
2022/10/23 00:27:53;;;;;;;4.93;3.33;;;11.30;99.90;;;;;;5007067;28;20522;-52
2022/10/23 00:30:20;;;;;;;9.13;4.10;;;11.30;99.90;;;;;;5008800;28;20506;-52
2022/10/23 00:32:46;;;;;;;5.37;3.43;;;11.30;99.90;;;;;;5009911;28;20497;-51
2022/10/23 00:35:14;;;;;;;4.37;3.53;;;11.30;99.90;;;;;;5002828;28;20549;-52
2022/10/23 00:37:41;;;;;;;6.40;3.63;;;11.30;99.90;;;;;;5002304;28;20914;-53
2022/10/23 00:40:09;;;;;;;4.67;3.73;;;11.30;99.90;;;;;;5007662;28;20463;-52
2022/10/23 00:42:37;;;;;;;5.33;3.43;;;11.20;99.90;;;;;;5008763;28;20520;-51
2022/10/23 00:45:18;;;;;;;9.53;4.10;;;11.20;99.90;;;;;;5003658;28;20487;-51
2022/10/23 00:47:45;;;;;;;3.47;3.23;;;11.20;99.90;;;;;;5009367;28;20490;-52
2022/10/23 00:50:12;;;;;;;3.83;3.10;;;11.30;99.90;;;;;;5009912;28;20463;-51
2022/10/23 00:52:42;;;;;;;8.63;3.70;;;11.30;99.90;;;;;;5001819;28;20463;-52
2022/10/23 00:55:09;;;;;;;4.07;2.90;;;11.30;99.90;;;;;;5008281;28;20468;-52
2022/10/23 00:57:40;;;;;;;5.30;3.30;;;11.40;99.90;;;;;;5005404;28;20513;-52
2022/10/23 01:00:08;;;;;;;6.30;3.73;;;11.30;99.90;;;;;;5008100;28;20522;-52
2022/10/23 01:02:35;;;;;;;3.83;3.53;;;11.40;99.90;;;;;;5009297;28;20460;-51
2022/10/23 01:05:01;;;;;;;5.70;3.67;;;11.40;99.90;;;;;;5010180;28;20483;-51
2022/10/23 01:07:36;;;;;;;7.90;3.80;;;11.40;99.90;;;;;;5006536;28;20514;-51
2022/10/23 01:10:10;;;;;;;7.30;3.30;;;11.50;99.90;;;;;;5007892;28;20466;-51
2022/10/23 01:12:45;;;;;;;3.70;3.07;;;11.60;99.90;;;;;;5006683;28;20467;-52
2022/10/23 01:15:18;;;;;;;6.13;4.03;;;11.60;99.90;;;;;;5008071;28;20529;-52
2022/10/23 01:17:51;;;;;;;4.90;3.93;;;11.70;99.90;;;;;;5009982;28;20471;-51
2022/10/23 01:20:34;;;;;;;5.03;3.60;;;11.70;99.90;;;;;;5012191;28;20470;-51
2022/10/23 01:23:13;;;;;;;4.23;3.57;;;11.70;99.90;;;;;;5007649;28;20486;-52
2022/10/23 01:25:58;;;;;;;6.20;4.57;;;11.70;99.90;;;;;;5012573;28;20858;-52
2022/10/23 01:28:30;;;;;;;5.47;4.40;;;11.70;99.90;;;;;;5009362;28;20923;-51
2022/10/23 01:30:59;;;;;;;6.97;4.07;;;11.80;99.90;;;;;;5009452;28;20464;-51
2022/10/23 01:33:32;;;;;;;7.27;5.10;;;11.80;99.90;;;;;;5010621;28;20451;-52
2022/10/23 01:36:02;;;;;;;4.33;3.93;;;11.80;99.90;;;;;;5012135;28;20538;-51
2022/10/23 01:38:39;;;;;;;10.13;5.57;;;11.80;99.90;;;;;;5006556;28;20456;-51
2022/10/23 01:41:10;;;;;;;9.80;4.70;;;11.80;99.90;;;;;;5008311;28;20494;-52
2022/10/23 01:43:45;;;;;;;6.30;4.33;;;11.80;99.90;;;;;;5009172;28;20530;-52
2022/10/23 01:46:15;;;;;;;5.33;4.17;;;11.80;99.90;;;;;;5011031;28;20562;-51
2022/10/23 01:48:52;;;;;;;5.33;4.40;;;11.80;99.90;;;;;;5011648;28;20471;-52
2022/10/23 01:51:21;;;;;;;6.70;4.50;;;11.80;99.90;;;;;;5008781;28;20528;-52
2022/10/23 01:53:49;;;;;;;4.80;4.30;;;11.80;99.90;;;;;;5011983;28;20467;-52
2022/10/23 01:56:21;;;;;;;5.10;3.70;;;11.80;99.90;;;;;;5009027;28;20557;-52
2022/10/23 01:58:53;;;;;;;8.27;4.73;;;11.80;99.90;;;;;;5013210;28;20589;-51
2022/10/23 02:01:24;;;;;;;7.57;3.90;;;11.80;99.90;;;;;;5007236;28;20467;-51
2022/10/23 02:03:51;;;;;;;18.60;5.40;;;11.70;99.90;;;;;;5005922;28;20511;-51
2022/10/23 02:06:18;;;;;;;4.77;4.30;;;11.70;99.90;;;;;;5008362;28;20568;-53
2022/10/23 02:08:45;;;;;;;6.63;4.83;;;11.70;99.90;;;;;;5012111;28;20471;-51
2022/10/23 02:11:15;;;;;;;8.60;5.30;;;11.70;99.90;;;;;;5010093;28;20897;-51
2022/10/23 02:13:46;;;;;;;5.03;4.00;;;11.70;99.90;;;;;;5010932;28;20467;-51
2022/10/23 02:16:22;;;;;;;6.87;4.63;;;11.70;99.90;;;;;;5009183;28;20538;-51
2022/10/23 02:18:55;;;;;;;6.80;5.10;;;11.60;99.90;;;;;;5009683;28;20472;-52
2022/10/23 02:21:29;;;;;;;6.60;4.57;;;11.50;99.90;;;;;;5011609;28;20472;-52
2022/10/23 02:24:02;;;;;;;9.90;4.40;;;11.50;99.90;;;;;;5012124;28;20464;-52
2022/10/23 02:26:33;;;;;;;5.67;4.03;;;11.50;99.90;;;;;;5008955;28;20490;-52
2022/10/23 02:29:06;;;;;;;6.47;4.23;;;11.40;99.90;;;;;;5011838;28;21063;-52
2022/10/23 02:31:34;;;;;;;6.07;4.33;;;11.40;99.90;;;;;;5008919;28;20464;-52
2022/10/23 02:34:01;;;;;;;5.57;4.27;;;11.40;99.90;;;;;;5009811;28;20512;-53
2022/10/23 02:36:27;;;;;;;6.43;3.93;;;11.40;99.90;;;;;;5009125;28;20479;-52
2022/10/23 02:38:54;;;;;;;7.43;5.40;;;11.30;99.90;;;;;;5010554;28;20464;-51
2022/10/23 02:41:31;;;;;;;6.80;4.63;;;11.30;99.90;;;;;;5010222;28;20460;-52
2022/10/23 02:44:10;;;;;;;4.47;4.07;;;11.30;99.90;;;;;;5010192;28;20514;-52
2022/10/23 02:46:49;;;;;;;7.83;4.60;;;11.30;99.90;;;;;;5011858;28;20475;-51
2022/10/23 02:49:22;;;;;;;7.33;4.30;;;11.30;99.90;;;;;;5011908;28;20463;-52
2022/10/23 02:51:57;;;;;;;7.20;4.60;;;11.30;99.90;;;;;;5007070;28;20464;-52
2022/10/23 02:54:42;;;;;;;4.83;4.37;;;11.30;99.90;;;;;;5007704;28;20964;-51
2022/10/23 02:57:16;;;;;;;8.30;4.70;;;11.30;99.90;;;;;;5009507;28;20467;-52
2022/10/23 02:59:47;;;;;;;7.60;4.60;;;11.20;99.90;;;;;;5010515;28;20472;-52
2022/10/23 03:02:21;;;;;;;10.63;4.40;;;11.20;99.90;;;;;;5009632;28;20463;-52
2022/10/23 03:04:48;;;;;;;8.60;4.80;;;11.20;99.90;;;;;;5010866;28;20554;-52
2022/10/23 03:07:17;;;;;;;9.13;4.70;;;11.20;99.90;;;;;;5008002;28;20579;-52
2022/10/23 03:09:44;;;;;;;11.27;4.80;;;11.10;99.90;;;;;;5010445;28;20463;-52
2022/10/23 03:12:10;;;;;;;9.60;5.60;;;11.10;99.90;;;;;;5008246;28;20455;-51
2022/10/23 03:14:37;;;;;;;7.63;5.10;;;11.10;99.90;;;;;;5011694;28;20480;-53
2022/10/23 03:17:04;;;;;;;10.60;5.20;;;11.00;99.90;;;;;;5008523;28;20459;-52
2022/10/23 03:19:32;;;;;;;4.97;4.17;;;11.00;99.90;;;;;;5010365;28;20464;-52
2022/10/23 03:21:58;;;;;;;10.60;5.37;;;11.00;99.90;;;;;;5007438;28;20471;-51
2022/10/23 03:24:25;;;;;;;12.63;4.60;;;11.00;99.90;;;;;;5007273;28;20472;-51
2022/10/23 03:26:51;;;;;;;5.13;4.60;;;10.90;99.90;;;;;;5005856;28;20985;-52
2022/10/23 03:29:18;;;;;;;8.30;4.20;;;10.80;99.90;;;;;;5012160;28;20468;-51
2022/10/23 03:31:45;;;;;;;8.30;4.40;;;10.70;99.90;;;;;;5009625;28;20502;-51
2022/10/23 03:34:12;;;;;;;6.77;4.60;;;10.70;99.90;;;;;;5009813;28;20522;-51
2022/10/23 03:36:40;;;;;;;6.90;4.27;;;10.70;99.90;;;;;;5009785;28;20459;-52
2022/10/23 03:39:07;;;;;;;5.27;4.73;;;10.60;99.90;;;;;;5007881;28;20460;-52
2022/10/23 03:41:33;;;;;;;4.83;4.30;;;10.50;99.90;;;;;;5006264;28;20468;-52
2022/10/23 03:44:00;;;;;;;6.13;4.77;;;10.60;99.90;;;;;;5011765;28;20471;-52
2022/10/23 03:46:26;;;;;;;8.33;5.03;;;10.50;99.90;;;;;;5008614;28;20491;-52
2022/10/23 03:48:54;;;;;;;5.67;4.30;;;10.50;99.90;;;;;;5008145;28;20459;-52
2022/10/23 03:51:20;;;;;;;5.23;4.23;;;10.50;99.90;;;;;;5003869;28;20486;-52
2022/10/23 03:53:48;;;;;;;7.10;4.53;;;10.40;99.90;;;;;;5009221;28;20499;-52
2022/10/23 03:56:15;;;;;;;20.93;5.37;;;10.30;99.90;;;;;;5006519;28;20538;-53
2022/10/23 03:58:42;;;;;;;4.83;4.13;;;10.30;99.90;;;;;;5009065;28;20674;-52
2022/10/23 04:01:09;;;;;;;6.80;4.90;;;10.30;99.90;;;;;;5007022;28;20533;-51
2022/10/23 04:03:35;;;;;;;12.00;4.93;;;10.30;99.90;;;;;;5008927;28;20523;-51
2022/10/23 04:06:02;;;;;;;4.90;4.40;;;10.20;99.90;;;;;;5010340;28;20904;-52
2022/10/23 04:08:29;;;;;;;10.53;4.70;;;10.20;99.90;;;;;;5008077;28;20590;-52
2022/10/23 04:10:56;;;;;;;10.03;3.97;;;10.10;99.90;;;;;;5007858;28;20460;-52
2022/10/23 04:13:23;;;;;;;7.50;4.73;;;10.10;99.90;;;;;;5009360;28;20468;-51
2022/10/23 04:15:50;;;;;;;6.70;4.27;;;10.10;99.90;;;;;;5007672;28;20549;-51
2022/10/23 04:18:17;;;;;;;6.57;4.47;;;10.00;99.90;;;;;;5008656;28;20530;-51
2022/10/23 04:20:46;;;;;;;4.93;4.40;;;9.90;99.90;;;;;;5009557;28;20464;-52
2022/10/23 04:23:13;;;;;;;8.73;4.60;;;9.90;99.90;;;;;;5007368;28;20514;-52
2022/10/23 04:25:40;;;;;;;5.00;4.30;;;9.90;99.90;;;;;;5005353;28;20487;-52
2022/10/23 04:28:07;;;;;;;5.40;4.90;;;9.90;99.90;;;;;;5003935;28;20464;-52
2022/10/23 04:30:34;;;;;;;8.13;5.03;;;9.80;99.90;;;;;;5009111;28;20460;-51
2022/10/23 04:33:01;;;;;;;11.77;4.47;;;9.80;99.90;;;;;;5004155;28;20467;-51
2022/10/23 04:35:27;;;;;;;5.13;4.70;;;9.70;99.90;;;;;;5010712;28;20526;-52
2022/10/23 04:37:54;;;;;;;5.90;4.30;;;9.70;99.90;;;;;;5006402;28;20490;-52
2022/10/23 04:40:20;;;;;;;6.10;4.73;;;9.70;99.90;;;;;;5005396;28;20471;-52
2022/10/23 04:42:47;;;;;;;10.30;5.30;;;9.60;99.90;;;;;;5008695;28;20514;-52
2022/10/23 04:45:15;;;;;;;6.97;4.20;;;9.60;99.90;;;;;;5008810;28;20483;-51
2022/10/23 04:47:42;;;;;;;12.60;4.50;;;9.60;99.90;;;;;;5006935;28;20496;-52
2022/10/23 04:50:08;;;;;;;7.97;4.63;;;9.50;99.90;;;;;;5005795;28;20876;-52
2022/10/23 04:52:35;;;;;;;4.37;3.97;;;9.40;99.90;;;;;;5006526;28;20455;-52
2022/10/23 04:55:01;;;;;;;5.90;4.43;;;9.50;99.90;;;;;;5008186;28;20546;-51
2022/10/23 04:57:28;;;;;;;7.27;4.60;;;9.40;99.90;;;;;;5007416;28;20960;-52
2022/10/23 04:59:55;;;;;;;7.70;3.87;;;9.40;99.90;;;;;;5008735;28;20475;-52
2022/10/23 05:02:23;;;;;;;6.57;3.47;;;9.30;99.90;;;;;;5007873;28;20456;-51
2022/10/23 05:04:49;;;;;;;9.20;4.00;;;9.30;99.90;;;;;;5006687;28;20493;-52
2022/10/23 05:07:16;;;;;;;12.43;4.80;;;9.30;99.90;;;;;;5006351;28;20919;-52
2022/10/23 05:09:43;;;;;;;4.27;3.87;;;9.20;99.90;;;;;;5008892;28;20957;-52
2022/10/23 05:12:09;;;;;;;4.87;4.27;;;9.20;98.70;;;;;;5008275;28;20505;-51
2022/10/23 05:14:36;;;;;;;8.67;4.80;;;9.20;99.90;;;;;;5007471;28;20989;-52
2022/10/23 05:17:07;;;;;;;4.83;4.30;;;9.20;99.90;;;;;;5005976;28;20883;-52
2022/10/23 05:19:40;;;;;;;5.20;3.80;;;9.20;99.90;;;;;;5006695;28;20506;-51
2022/10/23 05:22:07;;;;;;;6.00;4.20;;;9.10;96.80;;;;;;5006259;28;21359;-51
2022/10/23 05:24:33;;;;;;;4.70;3.80;;;9.10;99.90;;;;;;5006287;28;20476;-52
2022/10/23 05:27:00;;;;;;;4.20;3.80;;;9.00;80.30;;;;;;5008482;28;20525;-51
2022/10/23 05:29:27;;;;;;;4.73;4.23;;;9.00;20.60;;;;;;5008964;28;20579;-51
2022/10/23 05:31:58;;;;;;;8.73;4.13;;;9.00;83.00;;;;;;5005853;28;20943;-53
2022/10/23 05:34:27;;;;;;;9.93;4.50;;;9.00;72.40;;;;;;5005609;28;20455;-52
2022/10/23 05:36:55;;;;;;;6.97;3.77;;;9.00;99.90;;;;;;5009470;28;20464;-52
2022/10/23 05:39:22;;;;;;;5.50;3.80;;;9.00;96.50;;;;;;5005511;28;20537;-51
2022/10/23 05:41:50;;;;;;;4.90;4.40;;;9.00;87.00;;;;;;5008522;28;20471;-52
2022/10/23 05:44:16;;;;;;;5.90;4.67;;;9.00;83.30;;;;;;5005056;28;20460;-56
2022/10/23 05:46:43;;;;;;;4.67;3.90;;;9.00;99.70;;;;;;5006978;28;20476;-51
2022/10/23 05:49:10;;;;;;;5.20;4.13;;;9.00;72.40;;;;;;5007518;28;20945;-51
2022/10/23 05:51:37;;;;;;;5.30;4.30;;;9.00;77.00;;;;;;5008539;28;20463;-52
2022/10/23 05:54:07;;;;;;;11.30;4.23;;;9.00;95.10;;;;;;5006329;28;20455;-51
2022/10/23 05:56:33;;;;;;;12.33;3.80;;;9.00;85.00;;;;;;5003751;28;20471;-52
2022/10/23 05:59:00;;;;;;;6.93;4.13;;;8.90;83.40;;;;;;5008606;28;20510;-52
2022/10/23 06:01:27;;;;;;;5.43;3.93;;;8.90;77.90;;;;;;5005633;28;20455;-52
2022/10/23 06:03:54;;;;;;;4.20;3.80;;;8.90;82.60;;;;;;5011856;28;20529;-52
2022/10/23 06:06:21;;;;;;;11.03;4.73;;;8.80;74.60;;;;;;5012450;28;20537;-51
2022/10/23 06:08:47;;;;;;;4.30;3.90;;;8.80;74.60;;;;;;5011554;28;20525;-51
2022/10/23 06:11:16;;;;;;;6.50;4.70;;;8.80;83.30;;;;;;5011719;28;20467;-51
2022/10/23 06:13:44;;;;;;;5.53;4.33;;;8.90;85.70;;;;;;5009775;28;20464;-50
2022/10/23 06:16:11;;;;;;;9.57;4.70;;;8.90;78.10;;;;;;5000851;28;20553;-51
2022/10/23 06:18:38;;;;;;;5.80;4.37;;;8.80;20.30;;;;;;5011843;28;20907;-51
2022/10/23 06:21:05;;;;;;;6.63;4.20;;;8.80;21.40;;;;;;5011976;28;20510;-51
2022/10/23 06:23:32;;;;;;;9.00;4.30;;;8.90;82.30;;;;;;5012095;28;20598;-52
2022/10/23 06:26:00;;;;;;;5.60;4.07;;;8.90;20.30;;;;;;5010910;28;20491;-52
2022/10/23 06:28:28;;;;;;;6.13;4.60;;;8.90;76.40;;;;;;5007539;28;20518;-50
2022/10/23 06:30:55;;;;;;;4.43;3.70;;;8.90;21.10;;;;;;5003271;28;20881;-50
2022/10/23 06:33:21;;;;;;;9.97;4.37;;;8.90;21.90;;;;;;5010772;28;20876;-51
2022/10/23 06:35:48;;;;;;;8.13;4.13;;;8.90;22.60;;;;;;5009984;28;20483;-51
2022/10/23 06:38:14;;;;;;;8.60;5.50;;;8.90;21.60;;;;;;5011287;28;20464;-51
2022/10/23 06:40:41;;;;;;;4.97;4.43;;;9.00;21.10;;;;;;5015740;28;20464;-51
2022/10/23 06:43:08;;;;;;;11.60;5.77;;;9.00;20.70;;;;;;5003413;28;20472;-51
2022/10/23 06:45:36;;;;;;;11.20;4.87;;;9.10;71.70;;;;;;5007731;28;20546;-51
2022/10/23 06:48:02;;;;;;;5.40;4.90;;;9.20;77.80;;;;;;5004517;28;20479;-53
2022/10/23 06:50:30;;;;;;;6.77;4.53;;;9.20;93.00;;;;;;5006891;28;20472;-52
2022/10/23 06:52:57;;;;;;;9.00;4.90;;;9.30;87.80;;;;;;5009967;28;20467;-53
2022/10/23 06:55:24;;;;;;;14.50;6.13;;;9.40;85.80;;;;;;5028706;22;20491;-48
2022/10/23 06:57:50;;;;;;;7.97;5.30;;;9.50;88.70;;;;;;5001689;28;20471;-48
2022/10/23 07:00:17;;;;;;;9.23;5.40;;;9.60;80.00;;;;;;5004270;28;20876;-49
2022/10/23 07:02:45;;;;;;;6.10;5.60;;;9.70;89.80;;;;;;5008988;28;20461;-48
2022/10/23 07:05:12;;;;;;;8.67;6.20;;;9.80;99.90;;;;;;5009836;28;20587;-48
2022/10/23 07:07:38;;;;;;;9.67;6.17;;;9.90;99.90;;;;;;5008003;28;20895;-49
2022/10/23 07:10:06;;;;;;;11.67;6.90;;;9.90;99.90;;;;;;5011617;28;20510;-49
2022/10/23 07:12:32;;;;;;;12.57;6.23;;;10.00;99.90;;;;;;5008884;28;20953;-48
2022/10/23 07:14:59;;;;;;;9.20;5.80;;;10.00;99.90;;;;;;5002163;28;20522;-48
2022/10/23 07:17:25;;;;;;;18.00;9.43;;;10.10;99.90;;;;;;5004088;28;20549;-47
2022/10/23 07:19:53;;;;;;;89.33;36.17;;;10.20;99.90;;;;;;5010391;28;20471;-48
2022/10/23 07:22:20;;;;;;;58.47;24.67;;;10.30;99.90;;;;;;5004822;28;20545;-48
2022/10/23 07:24:46;;;;;;;73.63;34.53;;;10.40;99.90;;;;;;5007796;28;20468;-49
2022/10/23 07:27:13;;;;;;;66.23;33.83;;;10.50;99.90;;;;;;5009374;28;20938;-47
2022/10/23 07:29:40;;;;;;;49.73;22.00;;;10.60;86.50;;;;;;5007586;28;20463;-48
2022/10/23 07:32:08;;;;;;;34.70;15.93;;;10.80;22.70;;;;;;5008152;28;20481;-48
2022/10/23 07:34:35;;;;;;;16.27;9.10;;;10.90;29.60;;;;;;5008037;28;20522;-48
2022/10/23 07:37:03;;;;;;;16.10;9.13;;;11.00;37.60;;;;;;5008284;28;21025;-48
2022/10/23 07:39:30;;;;;;;10.83;6.83;;;11.20;37.70;;;;;;5010482;28;20463;-48
2022/10/23 07:41:56;;;;;;;12.50;6.63;;;11.20;42.40;;;;;;5012887;28;20456;-48
2022/10/23 07:44:23;;;;;;;23.37;9.00;;;11.30;46.70;;;;;;5009926;28;20510;-48
2022/10/23 07:46:50;;;;;;;8.07;6.10;;;11.30;49.50;;;;;;5007629;28;20543;-49
2022/10/23 07:49:16;;;;;;;7.40;6.33;;;11.40;52.10;;;;;;5007125;28;20457;-48
2022/10/23 07:51:43;;;;;;;11.93;5.77;;;11.40;50.80;;;;;;5005251;28;20471;-48
2022/10/23 07:54:12;;;;;;;5.63;4.90;;;11.60;52.00;;;;;;5003151;28;20506;-48
2022/10/23 07:56:39;;;;;;;7.50;5.80;;;11.70;48.00;;;;;;5004671;28;20487;-49
2022/10/23 07:59:05;;;;;;;8.10;6.00;;;11.80;46.20;;;;;;5006545;28;20471;-48
2022/10/23 08:01:34;;;;;;;9.90;6.40;;;11.90;40.40;;;;;;5005018;28;20514;-49
2022/10/23 08:04:01;;;;;;;9.87;6.50;;;12.20;41.20;;;;;;5002158;28;20525;-49
2022/10/23 08:06:28;;;;;;;8.60;7.27;;;12.20;41.70;;;;;;5006913;28;20542;-48
2022/10/23 08:08:55;;;;;;;8.13;7.43;;;12.50;39.80;;;;;;5007593;28;20462;-48
2022/10/23 08:11:26;;;;;;;9.20;7.57;;;12.50;46.00;;;;;;5005410;28;20464;-48
2022/10/23 08:13:54;;;;;;;11.17;7.37;;;12.60;47.50;;;;;;5003971;28;20468;-48
2022/10/23 08:16:21;;;;;;;10.30;7.80;;;12.70;63.00;;;;;;5008948;28;21674;-48
2022/10/23 08:18:48;;;;;;;11.00;8.87;;;12.80;73.50;;;;;;5009061;28;20463;-48
2022/10/23 08:21:16;;;;;;;7.83;7.10;;;12.90;75.30;;;;;;5003947;28;20460;-49
2022/10/23 08:23:43;;;;;;;9.10;8.20;;;12.90;99.90;;;;;;5007089;28;20541;-48
2022/10/23 08:26:11;;;;;;;10.27;8.60;;;13.20;93.70;;;;;;5006723;28;20507;-48
2022/10/23 08:28:39;;;;;;;13.50;8.70;;;13.60;99.90;;;;;;5010304;28;20541;-48
2022/10/23 08:31:11;;;;;;;9.73;8.17;;;13.70;99.90;;;;;;5006895;28;20471;-48
2022/10/23 08:33:37;;;;;;;17.17;7.90;;;13.80;99.90;;;;;;5007650;28;20522;-48
2022/10/23 08:36:05;;;;;;;13.67;8.00;;;14.00;99.90;;;;;;5008506;28;20545;-47
2022/10/23 08:38:32;;;;;;;11.17;7.80;;;14.20;99.90;;;;;;5007815;28;21007;-48
2022/10/23 08:41:00;;;;;;;9.00;6.40;;;14.60;99.90;;;;;;5008414;28;20475;-48
2022/10/23 08:43:35;;;;;;;11.03;7.17;;;15.30;68.10;;;;;;5008548;28;20468;-48
2022/10/23 08:46:07;;;;;;;9.50;7.60;;;16.00;94.90;;;;;;5006148;28;20475;-47
2022/10/23 08:48:41;;;;;;;12.57;6.30;;;17.70;99.90;;;;;;4999919;28;20487;-48
2022/10/23 08:51:15;;;;;;;13.40;6.67;;;18.80;40.70;;;;;;5007407;28;20463;-54
2022/10/23 08:53:50;;;;;;;11.47;6.33;;;19.30;61.10;;;;;;5001271;28;20471;-49
2022/10/23 08:56:25;;;;;;;7.77;5.27;;;18.60;42.40;;;;;;5000891;28;20486;-47
2022/10/23 08:58:55;;;;;;;8.37;5.80;;;19.40;70.80;;;;;;5007394;28;20545;-48
2022/10/23 09:01:35;;;;;;;13.10;7.60;;;19.50;68.30;;;;;;5008848;28;21075;-48
2022/10/23 09:04:03;;;;;;;8.33;5.00;;;20.30;89.50;;;;;;5007110;28;20486;-48
2022/10/23 09:06:35;;;;;;;10.07;5.70;;;20.00;83.80;;;;;;5006398;28;20479;-47
2022/10/23 09:09:15;;;;;;;9.93;5.70;;;18.10;62.90;;;;;;5003055;28;20490;-48
2022/10/23 09:11:49;;;;;;;8.70;6.10;;;17.50;21.80;;;;;;5004282;28;20464;-47
2022/10/23 09:14:49;;;;;;;11.20;5.90;;;17.90;99.90;;;;;;5004154;28;20548;-47
2022/10/23 09:17:24;;;;;;;8.80;5.83;;;17.80;99.90;;;;;;5004374;28;20476;-49
2022/10/23 09:19:55;;;;;;;8.33;5.10;;;18.00;99.90;;;;;;5006322;28;20467;-48
2022/10/23 09:22:22;;;;;;;6.43;4.77;;;17.90;99.90;;;;;;5004802;28;20510;-47
2022/10/23 09:24:48;;;;;;;8.60;4.70;;;17.80;21.00;;;;;;5001115;28;20472;-48
2022/10/23 09:27:17;;;;;;;8.03;5.20;;;18.00;99.90;;;;;;5004381;28;20487;-48
2022/10/23 09:29:48;;;;;;;9.73;5.53;;;18.20;29.30;;;;;;5002512;28;20514;-49
2022/10/23 09:32:15;;;;;;;7.57;4.30;;;19.10;54.10;;;;;;4999407;28;20471;-49
2022/10/23 09:34:54;;;;;;;5.07;3.93;;;20.00;85.90;;;;;;5007533;28;20460;-48
2022/10/23 09:37:23;;;;;;;14.70;4.90;;;21.00;99.90;;;;;;5009358;28;20525;-48
2022/10/23 09:40:02;;;;;;;7.93;4.30;;;21.80;99.90;;;;;;5009760;28;20463;-47
2022/10/23 09:42:28;;;;;;;7.83;3.90;;;21.80;99.90;;;;;;5006596;28;20954;-47
2022/10/23 09:44:56;;;;;;;5.13;4.17;;;22.40;99.90;;;;;;5012500;28;20463;-48
2022/10/23 09:47:24;;;;;;;3.57;3.33;;;22.20;99.90;;;;;;5006904;28;20494;-48
2022/10/23 09:49:53;;;;;;;6.03;3.57;;;22.30;99.90;;;;;;5006034;28;20467;-47
2022/10/23 09:52:25;;;;;;;3.73;2.80;;;21.60;99.90;;;;;;5007205;28;20455;-48
2022/10/23 09:54:55;;;;;;;6.20;2.97;;;21.90;99.90;;;;;;5004713;28;20555;-48
2022/10/23 09:57:24;;;;;;;2.90;2.70;;;21.20;99.90;;;;;;5003998;28;20483;-48
2022/10/23 09:59:52;;;;;;;6.53;3.30;;;22.20;99.90;;;;;;5012389;28;20472;-47
2022/10/23 10:02:26;;;;;;;5.50;2.80;;;22.60;99.90;;;;;;5011726;28;20864;-48
2022/10/23 10:04:54;;;;;;;5.00;2.40;;;22.80;99.90;;;;;;5012288;28;20493;-47
2022/10/23 10:07:23;;;;;;;5.37;2.80;;;21.60;99.90;;;;;;5001917;28;20565;-48
2022/10/23 10:09:50;;;;;;;7.33;2.73;;;21.00;99.90;;;;;;5011873;28;20467;-48
2022/10/23 10:12:28;;;;;;;10.30;2.40;;;21.20;99.90;;;;;;5013417;28;20510;-48
2022/10/23 10:15:06;;;;;;;5.67;2.60;;;21.20;99.90;;;;;;5009031;28;20467;-48
2022/10/23 10:17:42;;;;;;;6.13;3.13;;;19.90;99.90;;;;;;5010283;28;20844;-48
2022/10/23 10:20:32;;;;;;;3.10;2.63;;;19.60;99.90;;;;;;5008180;28;20490;-48
2022/10/23 10:23:06;;;;;;;4.00;2.20;;;19.90;99.90;;;;;;5006149;28;20530;-47
2022/10/23 10:25:37;;;;;;;3.63;2.67;;;19.20;99.90;;;;;;5011211;28;20487;-49
2022/10/23 10:28:23;;;;;;;4.77;3.07;;;19.50;99.90;;;;;;5012175;28;20476;-48
2022/10/23 10:31:00;;;;;;;7.30;3.30;;;19.60;99.90;;;;;;5007663;28;20467;-48
2022/10/23 10:33:33;;;;;;;10.37;3.20;;;19.40;99.90;;;;;;5008084;28;20467;-48
2022/10/23 10:36:12;;;;;;;4.63;2.83;;;18.90;99.90;;;;;;5002565;28;20529;-48
2022/10/23 10:38:47;;;;;;;2.33;1.97;;;18.70;94.10;;;;;;5005338;28;20472;-48
2022/10/23 10:41:29;;;;;;;8.83;3.03;;;18.70;81.20;;;;;;5009069;28;20467;-48
2022/10/23 10:44:15;;;;;;;9.43;2.47;;;18.80;74.90;;;;;;5007815;28;20538;-47
2022/10/23 10:46:50;;;;;;;5.10;2.63;;;18.70;70.60;;;;;;5012751;28;20483;-48
2022/10/23 10:49:24;;;;;;;5.53;3.57;;;18.80;69.80;;;;;;5009836;28;20487;-48
2022/10/23 10:52:00;;;;;;;6.07;2.80;;;18.80;77.60;;;;;;5009114;28;20486;-48
2022/10/23 10:54:39;;;;;;;5.53;2.80;;;18.80;81.00;;;;;;5007061;28;20463;-48
2022/10/23 10:57:16;;;;;;;3.90;2.50;;;18.40;71.20;;;;;;5009971;28;20905;-48
2022/10/23 10:59:46;;;;;;;4.10;2.90;;;18.70;76.40;;;;;;5001802;28;20964;-47
2022/10/23 11:02:25;;;;;;;4.90;2.30;;;18.50;76.60;;;;;;5006525;28;20455;-47
2022/10/23 11:04:57;;;;;;;8.97;2.80;;;18.70;69.10;;;;;;5006594;28;20630;-47
2022/10/23 11:07:29;;;;;;;5.10;2.30;;;18.80;73.00;;;;;;5012727;28;22513;-47
2022/10/23 11:09:59;;;;;;;8.50;2.70;;;18.70;73.00;;;;;;5013780;28;20464;-48
2022/10/23 11:12:28;;;;;;;5.83;2.53;;;18.60;72.70;;;;;;5010003;28;20467;-48
2022/10/23 11:14:56;;;;;;;2.07;1.70;;;18.50;70.80;;;;;;5009773;28;20467;-49
2022/10/23 11:17:27;;;;;;;6.07;2.30;;;18.40;67.70;;;;;;5008286;28;21058;-47
2022/10/23 11:20:00;;;;;;;5.63;2.17;;;18.50;68.20;;;;;;5006402;28;20460;-48
2022/10/23 11:22:35;;;;;;;3.20;2.47;;;18.70;66.40;;;;;;5008583;28;20884;-48
2022/10/23 11:25:21;;;;;;;3.87;2.40;;;18.80;67.40;;;;;;5009111;28;20521;-47
2022/10/23 11:28:00;;;;;;;5.10;2.10;;;18.80;69.20;;;;;;5004391;28;20483;-48
2022/10/23 11:30:32;;;;;;;4.63;2.20;;;18.80;74.00;;;;;;5004255;28;20459;-48
2022/10/23 11:33:42;;;;;;;8.67;2.00;;;18.70;71.00;;;;;;5007511;28;20464;-47
2022/10/23 11:36:15;;;;;;;5.80;2.20;;;18.70;66.10;;;;;;5010183;28;20513;-48
2022/10/23 11:38:46;;;;;;;2.63;1.70;;;18.60;68.20;;;;;;5009582;28;20463;-48
2022/10/23 11:41:21;;;;;;;3.23;1.80;;;18.70;66.50;;;;;;5007471;28;20456;-48
2022/10/23 11:43:50;;;;;;;3.90;1.77;;;18.70;66.30;;;;;;5010724;28;20463;-47
2022/10/23 11:46:31;;;;;;;3.53;2.30;;;18.80;60.70;;;;;;5007214;28;20569;-47
2022/10/23 11:49:01;;;;;;;2.93;1.80;;;18.80;67.90;;;;;;5006001;28;20537;-48
2022/10/23 11:51:30;;;;;;;5.20;2.00;;;18.90;71.00;;;;;;5007938;28;20468;-48
2022/10/23 11:54:23;;;;;;;10.23;2.07;;;19.20;67.50;;;;;;5004981;28;21008;-48
2022/10/23 11:57:10;;;;;;;4.67;1.93;;;19.20;79.00;;;;;;5005519;28;20858;-48
2022/10/23 11:59:43;;;;;;;3.77;1.70;;;19.30;79.70;;;;;;5006291;28;20462;-48
2022/10/23 12:02:24;;;;;;;3.83;2.13;;;19.30;79.20;;;;;;5005637;28;20456;-47
2022/10/23 12:04:52;;;;;;;5.60;2.00;;;19.10;76.40;;;;;;5003444;28;20472;-49
2022/10/23 12:07:24;;;;;;;5.53;1.90;;;19.00;72.00;;;;;;5009321;28;20483;-48
2022/10/23 12:09:57;;;;;;;2.77;1.90;;;19.00;65.70;;;;;;5000263;28;20488;-48
2022/10/23 12:12:33;;;;;;;3.37;1.57;;;19.00;71.10;;;;;;5006124;28;20973;-48
2022/10/23 12:15:22;;;;;;;4.93;2.20;;;19.00;66.80;;;;;;5004781;28;20471;-49
2022/10/23 12:17:50;;;;;;;5.03;2.30;;;19.20;66.20;;;;;;5003043;28;20470;-49
2022/10/23 12:20:36;;;;;;;3.90;2.07;;;19.30;70.50;;;;;;5001252;28;20460;-48
2022/10/23 12:23:26;;;;;;;17.53;1.93;;;19.30;70.30;;;;;;4996724;28;20546;-49
2022/10/23 12:26:10;;;;;;;5.23;2.27;;;19.20;68.40;;;;;;5005885;28;20548;-49
2022/10/23 12:28:45;;;;;;;5.37;2.40;;;19.10;67.00;;;;;;5003984;28;20483;-48
2022/10/23 12:31:26;;;;;;;3.17;2.37;;;19.00;66.60;;;;;;4996644;28;20525;-48
2022/10/23 12:34:03;;;;;;;4.13;2.17;;;19.10;57.20;;;;;;5002562;28;20471;-48
2022/10/23 12:36:43;;;;;;;6.07;2.20;;;19.20;54.10;;;;;;4997757;28;20569;-48
2022/10/23 12:39:26;;;;;;;6.00;2.83;;;19.20;56.50;;;;;;5004494;28;20455;-48
2022/10/23 12:41:55;;;;;;;1.97;1.70;;;19.10;55.40;;;;;;5004992;28;20463;-49
2022/10/23 12:44:23;;;;;;;3.83;2.30;;;19.10;54.10;;;;;;5006938;28;20468;-49
2022/10/23 12:46:53;;;;;;;6.00;2.23;;;19.00;48.70;;;;;;5004620;28;20571;-48
2022/10/23 12:49:22;;;;;;;5.37;2.20;;;19.00;48.70;;;;;;5007469;28;21086;-48
2022/10/23 12:51:55;;;;;;;4.70;1.80;;;18.90;46.00;;;;;;5003281;28;21024;-48
2022/10/23 12:54:22;;;;;;;2.53;1.60;;;18.80;43.10;;;;;;5007066;28;20459;-48
2022/10/23 12:56:49;;;;;;;13.83;2.33;;;18.70;40.40;;;;;;5030718;22;20498;-52
2022/10/23 12:59:20;;;;;;;5.53;2.23;;;18.70;40.60;;;;;;5030078;28;20467;-52
2022/10/23 13:01:47;;;;;;;7.03;2.40;;;18.70;34.70;;;;;;5029752;28;20478;-50
2022/10/23 13:04:21;;;;;;;4.97;1.87;;;18.60;36.40;;;;;;5028743;28;21637;-52